Terminal Aerodrome Forecast
Issued by NWS Wilmington, OH

Current Version | Previous Version | Graphics & Text | Print | Product List | Glossary On
Versions: 1 2 3 4 5 6 7 8 9 10 11 12 13 14 15 16 17 18 19 20 21 22 23 24 25 26 27 28 29 30 31
000
FTUS41 KILN 041500 AAA
TAFCVG
TAF AMD
KCVG 041520Z 0415/0518 33008KT P6SM SCT008 OVC015
     FM041600 33011KT 3SM -RAPL BR SCT007 OVC015
     FM041900 34012KT 1SM -SN OVC007
     FM050100 35012KT 3SM -SN OVC010
     FM050600 36010KT P6SM SCT022 OVC100
     FM051200 34007KT P6SM BKN022=

USA.gov is the U.S. government's official web portal to all federal, state and local government web resources and services.